createdAt,value
2019-01-14T00:10:44.148Z,97277.03
2019-01-14T00:15:48.718Z,97272.53
2019-01-14T00:21:11.930Z,97297.16
2019-01-14T00:26:16.228Z,97295.75
2019-01-14T00:36:49.649Z,97317.72
2019-01-14T00:41:53.974Z,97323.67
2019-01-14T00:47:44.639Z,97336.89
2019-01-14T00:52:48.913Z,97346.50
2019-01-14T00:57:53.137Z,97357.69
2019-01-14T01:02:57.381Z,97361.70
2019-01-14T01:08:01.609Z,97371.00
2019-01-14T01:13:05.863Z,97377.88
2019-01-14T01:18:29.157Z,97369.14
2019-01-14T01:23:33.376Z,97367.12
2019-01-14T01:28:37.603Z,97392.16
2019-01-14T01:34:01.211Z,97393.95
2019-01-14T01:39:46.902Z,97394.70
2019-01-14T01:50:13.200Z,97430.56
2019-01-14T01:55:29.356Z,97441.38
2019-01-14T02:11:12.880Z,97451.27
2019-01-14T02:21:47.576Z,97465.68
2019-01-14T02:26:51.805Z,97462.55
2019-01-14T02:32:15.096Z,97468.65
2019-01-14T02:37:19.315Z,97487.23
2019-01-14T02:42:23.564Z,97512.92
2019-01-14T02:52:56.911Z,97528.01
2019-01-14T03:03:10.980Z,97536.52
2019-01-14T03:08:34.597Z,97538.42
2019-01-14T03:13:38.824Z,97537.50
2019-01-14T03:18:43.050Z,97537.26
2019-01-14T03:23:47.628Z,97542.66
2019-01-14T03:28:51.880Z,97540.89
2019-01-14T03:33:56.108Z,97534.06
2019-01-14T03:39:00.334Z,97537.28
2019-01-14T03:49:35.438Z,97549.54
2019-01-14T03:54:51.699Z,97553.41
2019-01-14T04:00:14.859Z,97562.41
2019-01-14T04:05:19.496Z,97552.80
2019-01-14T04:10:42.789Z,97564.80
2019-01-14T04:20:57.482Z,97578.73
2019-01-14T04:26:02.041Z,97595.66
2019-01-14T04:31:25.461Z,97585.92
2019-01-14T04:36:29.686Z,97602.27
2019-01-14T04:41:33.916Z,97587.86
2019-01-14T04:52:07.157Z,97600.45
2019-01-14T04:57:30.478Z,97600.95
2019-01-14T05:13:14.203Z,97609.56
2019-01-14T05:18:18.437Z,97615.23
2019-01-14T05:23:41.767Z,97616.05
2019-01-14T05:28:46.002Z,97636.84
2019-01-14T05:34:09.677Z,97631.94
2019-01-14T05:39:14.036Z,97642.02
2019-01-14T05:44:18.221Z,97646.81
2019-01-14T05:49:22.783Z,97652.69
2019-01-14T05:59:50.768Z,97675.63
2019-01-14T06:05:35.265Z,97681.51
2019-01-14T06:11:20.156Z,97678.50
2019-01-14T06:28:11.555Z,97692.80
2019-01-14T06:33:55.279Z,97706.14
2019-01-14T06:57:14.817Z,97739.34
2019-01-14T07:02:31.429Z,97745.11
2019-01-14T07:07:47.950Z,97763.70
2019-01-14T07:13:33.152Z,97774.16
2019-01-14T07:19:18.336Z,97782.41
2019-01-14T07:36:44.567Z,97802.45
2019-01-14T07:42:15.009Z,97813.11
2019-01-14T07:47:59.510Z,97812.98
2019-01-14T07:59:35.011Z,97838.79
2019-01-14T08:04:53.297Z,97856.67
2019-01-14T08:10:10.079Z,97849.48
2019-01-14T08:15:28.201Z,97862.05
2019-01-14T08:20:45.067Z,97871.56
2019-01-14T08:26:01.541Z,97889.77
2019-01-14T08:31:19.330Z,97892.91
2019-01-14T08:36:37.384Z,97915.61
2019-01-14T08:41:58.829Z,97924.46
2019-01-14T08:47:15.576Z,97938.64
2019-01-14T08:52:33.201Z,97952.05
2019-01-14T08:57:54.441Z,97962.81
2019-01-14T09:08:59.929Z,97972.77
2019-01-14T09:14:17.068Z,97981.33
2019-01-14T09:19:35.024Z,97990.83
2019-01-14T09:24:51.769Z,97994.44
2019-01-14T09:30:09.307Z,98006.03
2019-01-14T09:35:27.267Z,98020.84
2019-01-14T09:41:11.622Z,97999.10
2019-01-14T09:52:47.844Z,98020.78
2019-01-14T10:04:25.500Z,98060.23
2019-01-14T10:09:45.267Z,98062.74
2019-01-14T10:15:02.709Z,98066.67
2019-01-14T10:20:21.109Z,98067.46
2019-01-14T10:25:38.406Z,98061.42
2019-01-14T10:30:55.949Z,98057.84
2019-01-14T10:36:15.377Z,98068.64
2019-01-14T10:41:32.988Z,98078.49
2019-01-14T10:47:02.244Z,98067.05
2019-01-14T10:52:09.399Z,98064.98
2019-01-14T10:57:18.711Z,98076.68
2019-01-14T11:02:26.877Z,98088.77
2019-01-14T11:07:32.893Z,98088.70
2019-01-14T11:12:40.050Z,98089.64
2019-01-14T11:17:48.581Z,98097.77
2019-01-14T11:22:59.781Z,98098.59
2019-01-14T11:28:09.538Z,98093.22
2019-01-14T11:33:17.762Z,98089.13
2019-01-14T11:38:44.174Z,98091.00
2019-01-14T11:43:50.592Z,98102.16
2019-01-14T11:48:58.219Z,98114.89
2019-01-14T11:54:06.128Z,98127.34
2019-01-14T11:59:12.923Z,98137.92
2019-01-14T12:04:19.458Z,98146.99
2019-01-14T12:09:30.020Z,98139.84
2019-01-14T12:14:42.302Z,98142.21
2019-01-14T12:19:50.689Z,98149.46
2019-01-14T12:24:57.212Z,98150.91
2019-01-14T12:30:04.440Z,98148.02
2019-01-14T12:35:12.398Z,98150.02
2019-01-14T12:40:24.039Z,98140.05
2019-01-14T12:45:29.848Z,98135.73
2019-01-14T12:50:36.739Z,98140.93
2019-01-14T12:55:42.878Z,98161.83
2019-01-14T13:00:49.023Z,98178.97
2019-01-14T13:05:55.233Z,98185.74
2019-01-14T13:11:01.614Z,98196.38
2019-01-14T13:16:12.399Z,98193.49
2019-01-14T13:21:19.668Z,98195.69
2019-01-14T13:26:26.079Z,98220.96
2019-01-14T13:31:35.820Z,98227.32
2019-01-14T13:36:42.126Z,98230.00
2019-01-14T13:41:51.475Z,98229.89
2019-01-14T13:46:58.314Z,98230.75
2019-01-14T13:52:04.649Z,98238.31
2019-01-14T13:57:17.108Z,98242.48
2019-01-14T14:08:12.608Z,98258.70
2019-01-14T14:13:35.932Z,98263.69
2019-01-14T14:24:23.079Z,98259.26
2019-01-14T14:29:27.760Z,98280.89
2019-01-14T14:40:01.773Z,98304.53
2019-01-14T14:45:45.969Z,98310.67
2019-01-14T14:50:50.245Z,98325.14
2019-01-14T15:01:42.641Z,98335.60
2019-01-14T15:07:05.944Z,98349.53
2019-01-14T15:12:29.260Z,98352.41
2019-01-14T15:17:33.865Z,98377.03
2019-01-14T15:22:38.139Z,98394.25
2019-01-14T15:38:22.292Z,98419.04
2019-01-14T15:48:36.052Z,98414.36
2019-01-14T15:53:40.291Z,98423.58
2019-01-14T15:58:44.516Z,98435.97
2019-01-14T16:04:07.884Z,98444.64
2019-01-14T16:09:12.119Z,98454.88
2019-01-14T16:14:16.346Z,98447.06
2019-01-14T16:24:30.652Z,98461.17
2019-01-14T16:29:34.945Z,98465.25
2019-01-14T16:34:39.179Z,98468.80
2019-01-14T16:39:43.719Z,98482.72
2019-01-14T16:44:48.005Z,98491.41
2019-01-14T16:55:02.101Z,98507.69
2019-01-14T17:00:25.410Z,98515.13
2019-01-14T17:05:48.707Z,98518.36
2019-01-14T17:11:12.062Z,98529.04
2019-01-14T17:16:35.368Z,98535.45
2019-01-14T17:21:39.946Z,98546.13
2019-01-14T17:26:44.272Z,98539.17
2019-01-14T17:32:07.577Z,98551.98
2019-01-14T17:37:11.807Z,98564.90
2019-01-14T17:42:35.527Z,98577.77
2019-01-14T17:47:58.841Z,98568.41
2019-01-14T17:58:13.267Z,98582.01
2019-01-14T18:03:17.593Z,98591.05
2019-01-14T18:24:10.906Z,98617.88
2019-01-14T18:29:26.702Z,98620.83
2019-01-14T18:34:30.953Z,98622.57
2019-01-14T18:39:35.198Z,98645.19
2019-01-14T18:44:39.439Z,98665.19
2019-01-14T18:49:43.670Z,98684.76
2019-01-14T18:54:49.876Z,98684.19
2019-01-14T19:00:13.329Z,98703.06
2019-01-14T19:05:17.603Z,98702.52
2019-01-14T19:10:22.336Z,98725.89
2019-01-14T19:15:45.686Z,98728.15
2019-01-14T19:26:51.891Z,98747.10
2019-01-14T19:32:08.177Z,98749.58
2019-01-14T19:37:13.046Z,98757.47
2019-01-14T19:42:17.504Z,98765.91
2019-01-14T19:47:23.020Z,98768.05
2019-01-14T19:52:27.422Z,98782.28
2019-01-14T19:57:31.753Z,98778.04
2019-01-14T20:02:36.008Z,98780.38
2019-01-14T20:18:38.280Z,98799.41
2019-01-14T20:24:01.602Z,98808.14
2019-01-14T20:29:05.896Z,98811.55
2019-01-14T20:34:22.224Z,98809.07
2019-01-14T20:39:26.478Z,98816.42
2019-01-14T20:49:40.551Z,98817.34
2019-01-14T21:00:34.209Z,98807.36
2019-01-14T21:05:38.428Z,98813.79
2019-01-14T21:26:33.322Z,98830.69
2019-01-14T21:31:56.638Z,98829.46
2019-01-14T21:37:01.025Z,98831.16
2019-01-14T21:42:24.343Z,98837.59
2019-01-14T21:58:47.472Z,98832.72
2019-01-14T22:03:51.929Z,98836.42
2019-01-14T22:09:35.599Z,98846.14
2019-01-14T22:14:39.858Z,98848.27
2019-01-14T22:19:45.426Z,98849.58
2019-01-14T22:24:50.478Z,98855.50
2019-01-14T22:30:15.924Z,98865.48
2019-01-14T22:35:39.262Z,98871.13
2019-01-14T22:40:54.949Z,98877.32
2019-01-14T22:51:49.743Z,98894.22
2019-01-14T22:57:13.055Z,98886.86
2019-01-14T23:17:47.533Z,98891.83
2019-01-14T23:22:52.412Z,98903.13
2019-01-14T23:28:15.729Z,98909.27
2019-01-14T23:33:19.982Z,98919.02
2019-01-14T23:38:43.383Z,98924.82
2019-01-14T23:48:57.452Z,98934.66
2019-01-14T23:54:20.754Z,98932.38
2019-01-14T23:59:25.012Z,98935.25
